sensor_id;sensor_type;location;lat;lon;timestamp;P1;durP1;ratioP1;P2;durP2;ratioP2
60292;SDS011;52402;52.670;6.750;2023-03-01T00:01:10;18.23;;;14.25;;
60292;SDS011;52402;52.670;6.750;2023-03-01T00:03:41;23.85;;;21.55;;
60292;SDS011;52402;52.670;6.750;2023-03-01T00:06:08;20.60;;;14.70;;
60292;SDS011;52402;52.670;6.750;2023-03-01T00:08:34;24.90;;;22.27;;
60292;SDS011;52402;52.670;6.750;2023-03-01T00:11:01;20.65;;;18.33;;
60292;SDS011;52402;52.670;6.750;2023-03-01T00:13:48;27.52;;;24.85;;
60292;SDS011;52402;52.670;6.750;2023-03-01T00:16:17;19.73;;;12.55;;
60292;SDS011;52402;52.670;6.750;2023-03-01T00:18:45;19.90;;;15.43;;
60292;SDS011;52402;52.670;6.750;2023-03-01T00:21:11;29.70;;;26.88;;
60292;SDS011;52402;52.670;6.750;2023-03-01T00:23:37;32.38;;;29.00;;
60292;SDS011;52402;52.670;6.750;2023-03-01T00:26:05;22.05;;;17.83;;
60292;SDS011;52402;52.670;6.750;2023-03-01T00:28:32;25.73;;;23.23;;
60292;SDS011;52402;52.670;6.750;2023-03-01T00:31:08;17.38;;;13.63;;
60292;SDS011;52402;52.670;6.750;2023-03-01T00:33:35;22.60;;;17.48;;
60292;SDS011;52402;52.670;6.750;2023-03-01T00:36:01;20.85;;;17.70;;
60292;SDS011;52402;52.670;6.750;2023-03-01T00:38:28;23.17;;;17.63;;
60292;SDS011;52402;52.670;6.750;2023-03-01T00:40:54;24.13;;;21.25;;
60292;SDS011;52402;52.670;6.750;2023-03-01T00:43:20;20.88;;;17.45;;
60292;SDS011;52402;52.670;6.750;2023-03-01T00:45:46;27.30;;;24.63;;
60292;SDS011;52402;52.670;6.750;2023-03-01T00:48:12;21.35;;;14.77;;
60292;SDS011;52402;52.670;6.750;2023-03-01T00:50:37;23.33;;;20.75;;
60292;SDS011;52402;52.670;6.750;2023-03-01T00:53:03;20.23;;;16.17;;
60292;SDS011;52402;52.670;6.750;2023-03-01T00:55:30;21.88;;;14.32;;
60292;SDS011;52402;52.670;6.750;2023-03-01T00:57:56;20.05;;;15.75;;
60292;SDS011;52402;52.670;6.750;2023-03-01T01:00:21;27.80;;;25.02;;
60292;SDS011;52402;52.670;6.750;2023-03-01T01:02:47;24.55;;;19.02;;
60292;SDS011;52402;52.670;6.750;2023-03-01T01:05:13;33.60;;;30.05;;
60292;SDS011;52402;52.670;6.750;2023-03-01T01:07:39;26.23;;;22.05;;
60292;SDS011;52402;52.670;6.750;2023-03-01T01:10:05;21.75;;;15.10;;
60292;SDS011;52402;52.670;6.750;2023-03-01T01:12:31;22.42;;;18.02;;
60292;SDS011;52402;52.670;6.750;2023-03-01T01:14:57;23.25;;;19.95;;
60292;SDS011;52402;52.670;6.750;2023-03-01T01:17:23;24.67;;;22.10;;
60292;SDS011;52402;52.670;6.750;2023-03-01T01:19:49;22.10;;;17.63;;
60292;SDS011;52402;52.670;6.750;2023-03-01T01:22:15;27.45;;;22.88;;
60292;SDS011;52402;52.670;6.750;2023-03-01T01:24:40;25.35;;;20.60;;
60292;SDS011;52402;52.670;6.750;2023-03-01T01:27:06;23.35;;;20.05;;
60292;SDS011;52402;52.670;6.750;2023-03-01T01:29:32;38.63;;;34.30;;
60292;SDS011;52402;52.670;6.750;2023-03-01T01:31:58;23.55;;;15.13;;
60292;SDS011;52402;52.670;6.750;2023-03-01T01:34:23;25.45;;;16.70;;
60292;SDS011;52402;52.670;6.750;2023-03-01T01:36:52;39.40;;;31.08;;
60292;SDS011;52402;52.670;6.750;2023-03-01T01:39:19;33.77;;;25.73;;
60292;SDS011;52402;52.670;6.750;2023-03-01T01:41:45;34.47;;;30.85;;
60292;SDS011;52402;52.670;6.750;2023-03-01T01:44:19;28.92;;;24.52;;
60292;SDS011;52402;52.670;6.750;2023-03-01T01:46:51;26.30;;;21.25;;
60292;SDS011;52402;52.670;6.750;2023-03-01T01:52:02;24.40;;;17.92;;
60292;SDS011;52402;52.670;6.750;2023-03-01T01:54:42;30.90;;;27.70;;
60292;SDS011;52402;52.670;6.750;2023-03-01T01:57:31;20.67;;;13.63;;
60292;SDS011;52402;52.670;6.750;2023-03-01T02:00:00;24.13;;;17.55;;
60292;SDS011;52402;52.670;6.750;2023-03-01T02:02:47;28.08;;;23.75;;
60292;SDS011;52402;52.670;6.750;2023-03-01T02:08:01;34.20;;;30.80;;
60292;SDS011;52402;52.670;6.750;2023-03-01T02:10:27;29.40;;;17.92;;
60292;SDS011;52402;52.670;6.750;2023-03-01T02:12:53;28.83;;;18.73;;
60292;SDS011;52402;52.670;6.750;2023-03-01T02:15:19;32.45;;;29.20;;
60292;SDS011;52402;52.670;6.750;2023-03-01T02:17:45;20.73;;;14.43;;
60292;SDS011;52402;52.670;6.750;2023-03-01T02:20:18;21.67;;;17.55;;
60292;SDS011;52402;52.670;6.750;2023-03-01T02:22:50;19.45;;;11.82;;
60292;SDS011;52402;52.670;6.750;2023-03-01T02:28:03;32.25;;;26.33;;
60292;SDS011;52402;52.670;6.750;2023-03-01T02:30:35;27.25;;;18.52;;
60292;SDS011;52402;52.670;6.750;2023-03-01T02:33:02;21.50;;;10.45;;
60292;SDS011;52402;52.670;6.750;2023-03-01T02:35:29;24.45;;;18.17;;
60292;SDS011;52402;52.670;6.750;2023-03-01T02:38:00;25.45;;;20.42;;
60292;SDS011;52402;52.670;6.750;2023-03-01T02:40:27;22.58;;;16.85;;
60292;SDS011;52402;52.670;6.750;2023-03-01T02:42:56;23.88;;;19.50;;
60292;SDS011;52402;52.670;6.750;2023-03-01T02:45:24;35.28;;;31.52;;
60292;SDS011;52402;52.670;6.750;2023-03-01T02:47:53;31.00;;;26.95;;
60292;SDS011;52402;52.670;6.750;2023-03-01T02:55:52;25.42;;;18.88;;
60292;SDS011;52402;52.670;6.750;2023-03-01T02:58:18;25.73;;;20.33;;
60292;SDS011;52402;52.670;6.750;2023-03-01T03:00:44;26.10;;;19.88;;
60292;SDS011;52402;52.670;6.750;2023-03-01T03:03:19;22.77;;;15.85;;
60292;SDS011;52402;52.670;6.750;2023-03-01T03:05:46;32.20;;;22.58;;
60292;SDS011;52402;52.670;6.750;2023-03-01T03:08:13;24.60;;;17.10;;
60292;SDS011;52402;52.670;6.750;2023-03-01T03:10:41;26.75;;;19.08;;
60292;SDS011;52402;52.670;6.750;2023-03-01T03:13:11;28.83;;;21.30;;
60292;SDS011;52402;52.670;6.750;2023-03-01T03:15:38;29.40;;;23.27;;
60292;SDS011;52402;52.670;6.750;2023-03-01T03:18:06;22.38;;;16.25;;
60292;SDS011;52402;52.670;6.750;2023-03-01T03:20:34;21.15;;;14.23;;
60292;SDS011;52402;52.670;6.750;2023-03-01T03:23:01;25.70;;;20.55;;
60292;SDS011;52402;52.670;6.750;2023-03-01T03:25:27;26.58;;;23.48;;
60292;SDS011;52402;52.670;6.750;2023-03-01T03:27:54;23.92;;;20.83;;
60292;SDS011;52402;52.670;6.750;2023-03-01T03:30:22;24.33;;;21.65;;
60292;SDS011;52402;52.670;6.750;2023-03-01T03:32:49;20.38;;;15.15;;
60292;SDS011;52402;52.670;6.750;2023-03-01T03:35:22;20.48;;;17.63;;
60292;SDS011;52402;52.670;6.750;2023-03-01T03:37:55;23.52;;;17.05;;
60292;SDS011;52402;52.670;6.750;2023-03-01T03:40:31;23.40;;;16.08;;
60292;SDS011;52402;52.670;6.750;2023-03-01T03:43:05;20.60;;;16.33;;
60292;SDS011;52402;52.670;6.750;2023-03-01T03:45:32;24.88;;;19.88;;
60292;SDS011;52402;52.670;6.750;2023-03-01T03:47:59;29.80;;;24.80;;
60292;SDS011;52402;52.670;6.750;2023-03-01T03:50:25;21.77;;;15.88;;
60292;SDS011;52402;52.670;6.750;2023-03-01T03:52:51;26.35;;;22.73;;
60292;SDS011;52402;52.670;6.750;2023-03-01T03:55:17;24.25;;;18.45;;
60292;SDS011;52402;52.670;6.750;2023-03-01T03:57:44;22.95;;;17.83;;
60292;SDS011;52402;52.670;6.750;2023-03-01T04:00:17;22.52;;;17.40;;
60292;SDS011;52402;52.670;6.750;2023-03-01T04:02:44;27.88;;;24.08;;
60292;SDS011;52402;52.670;6.750;2023-03-01T04:05:11;19.02;;;13.05;;
60292;SDS011;52402;52.670;6.750;2023-03-01T04:07:39;23.45;;;17.20;;
60292;SDS011;52402;52.670;6.750;2023-03-01T04:10:08;25.48;;;19.50;;
60292;SDS011;52402;52.670;6.750;2023-03-01T04:12:38;22.15;;;15.57;;
60292;SDS011;52402;52.670;6.750;2023-03-01T04:15:05;16.27;;;9.10;;
60292;SDS011;52402;52.670;6.750;2023-03-01T04:17:39;23.15;;;20.60;;
60292;SDS011;52402;52.670;6.750;2023-03-01T04:20:05;26.02;;;21.10;;
60292;SDS011;52402;52.670;6.750;2023-03-01T04:22:32;23.00;;;13.80;;
60292;SDS011;52402;52.670;6.750;2023-03-01T04:24:58;24.10;;;16.88;;
60292;SDS011;52402;52.670;6.750;2023-03-01T04:27:31;26.60;;;19.42;;
60292;SDS011;52402;52.670;6.750;2023-03-01T04:29:58;24.25;;;16.52;;
60292;SDS011;52402;52.670;6.750;2023-03-01T04:32:23;31.20;;;25.38;;
60292;SDS011;52402;52.670;6.750;2023-03-01T04:34:49;23.90;;;20.58;;
60292;SDS011;52402;52.670;6.750;2023-03-01T04:37:14;20.80;;;14.65;;
60292;SDS011;52402;52.670;6.750;2023-03-01T04:39:41;32.63;;;29.33;;
60292;SDS011;52402;52.670;6.750;2023-03-01T04:42:13;21.38;;;13.55;;
60292;SDS011;52402;52.670;6.750;2023-03-01T04:44:39;21.17;;;15.18;;
60292;SDS011;52402;52.670;6.750;2023-03-01T04:47:05;22.60;;;18.05;;
60292;SDS011;52402;52.670;6.750;2023-03-01T04:49:31;22.80;;;15.52;;
60292;SDS011;52402;52.670;6.750;2023-03-01T04:51:57;23.30;;;18.00;;
60292;SDS011;52402;52.670;6.750;2023-03-01T04:54:27;22.05;;;16.02;;
60292;SDS011;52402;52.670;6.750;2023-03-01T04:56:54;21.90;;;14.88;;
60292;SDS011;52402;52.670;6.750;2023-03-01T04:59:19;25.77;;;19.17;;
60292;SDS011;52402;52.670;6.750;2023-03-01T05:01:47;19.15;;;15.23;;
60292;SDS011;52402;52.670;6.750;2023-03-01T05:04:14;24.25;;;18.58;;
60292;SDS011;52402;52.670;6.750;2023-03-01T05:06:39;19.85;;;15.45;;
60292;SDS011;52402;52.670;6.750;2023-03-01T05:09:05;19.20;;;9.30;;
60292;SDS011;52402;52.670;6.750;2023-03-01T05:11:31;26.20;;;18.02;;
60292;SDS011;52402;52.670;6.750;2023-03-01T05:14:00;27.00;;;21.27;;
60292;SDS011;52402;52.670;6.750;2023-03-01T05:16:27;24.05;;;14.65;;
60292;SDS011;52402;52.670;6.750;2023-03-01T05:18:53;24.98;;;15.55;;
60292;SDS011;52402;52.670;6.750;2023-03-01T05:21:20;26.13;;;21.20;;
60292;SDS011;52402;52.670;6.750;2023-03-01T05:23:46;22.23;;;15.73;;
60292;SDS011;52402;52.670;6.750;2023-03-01T05:26:14;23.65;;;17.88;;
60292;SDS011;52402;52.670;6.750;2023-03-01T05:28:42;26.73;;;23.90;;
60292;SDS011;52402;52.670;6.750;2023-03-01T05:31:08;19.58;;;13.65;;
60292;SDS011;52402;52.670;6.750;2023-03-01T05:33:38;21.88;;;15.10;;
60292;SDS011;52402;52.670;6.750;2023-03-01T05:36:05;18.33;;;13.55;;
60292;SDS011;52402;52.670;6.750;2023-03-01T05:38:32;25.52;;;17.10;;
60292;SDS011;52402;52.670;6.750;2023-03-01T05:40:58;22.15;;;15.63;;
60292;SDS011;52402;52.670;6.750;2023-03-01T05:43:24;18.33;;;9.88;;
60292;SDS011;52402;52.670;6.750;2023-03-01T05:45:49;24.13;;;17.60;;
60292;SDS011;52402;52.670;6.750;2023-03-01T05:48:16;24.15;;;17.65;;
60292;SDS011;52402;52.670;6.750;2023-03-01T05:50:44;24.65;;;13.45;;
60292;SDS011;52402;52.670;6.750;2023-03-01T05:53:11;29.77;;;26.05;;
60292;SDS011;52402;52.670;6.750;2023-03-01T05:55:38;27.52;;;19.90;;
60292;SDS011;52402;52.670;6.750;2023-03-01T05:58:06;27.67;;;20.42;;
60292;SDS011;52402;52.670;6.750;2023-03-01T06:00:35;31.70;;;23.33;;
60292;SDS011;52402;52.670;6.750;2023-03-01T06:03:01;23.85;;;11.85;;
60292;SDS011;52402;52.670;6.750;2023-03-01T06:05:28;24.30;;;18.02;;
60292;SDS011;52402;52.670;6.750;2023-03-01T06:07:54;26.23;;;20.08;;
60292;SDS011;52402;52.670;6.750;2023-03-01T06:10:20;25.38;;;18.60;;
60292;SDS011;52402;52.670;6.750;2023-03-01T06:12:47;23.27;;;16.33;;
60292;SDS011;52402;52.670;6.750;2023-03-01T06:15:13;25.00;;;17.33;;
60292;SDS011;52402;52.670;6.750;2023-03-01T06:17:41;21.42;;;15.15;;
60292;SDS011;52402;52.670;6.750;2023-03-01T06:20:11;24.77;;;15.48;;
60292;SDS011;52402;52.670;6.750;2023-03-01T06:25:05;24.50;;;15.40;;
60292;SDS011;52402;52.670;6.750;2023-03-01T06:27:31;16.98;;;13.25;;
60292;SDS011;52402;52.670;6.750;2023-03-01T06:29:57;19.02;;;9.10;;
60292;SDS011;52402;52.670;6.750;2023-03-01T06:32:22;22.15;;;13.35;;
60292;SDS011;52402;52.670;6.750;2023-03-01T06:34:48;25.98;;;17.40;;
60292;SDS011;52402;52.670;6.750;2023-03-01T06:37:14;28.50;;;21.08;;
60292;SDS011;52402;52.670;6.750;2023-03-01T06:39:40;25.88;;;19.77;;
60292;SDS011;52402;52.670;6.750;2023-03-01T06:42:06;26.02;;;18.33;;
60292;SDS011;52402;52.670;6.750;2023-03-01T06:44:33;24.65;;;19.38;;
60292;SDS011;52402;52.670;6.750;2023-03-01T06:46:58;29.55;;;19.83;;
60292;SDS011;52402;52.670;6.750;2023-03-01T06:49:24;22.50;;;13.52;;
60292;SDS011;52402;52.670;6.750;2023-03-01T06:51:50;21.50;;;11.40;;
60292;SDS011;52402;52.670;6.750;2023-03-01T06:54:15;27.63;;;20.27;;
60292;SDS011;52402;52.670;6.750;2023-03-01T06:56:42;24.60;;;10.32;;
60292;SDS011;52402;52.670;6.750;2023-03-01T06:59:11;28.88;;;22.63;;
60292;SDS011;52402;52.670;6.750;2023-03-01T07:01:36;28.70;;;19.55;;
60292;SDS011;52402;52.670;6.750;2023-03-01T07:04:03;20.00;;;13.25;;
60292;SDS011;52402;52.670;6.750;2023-03-01T07:06:29;20.55;;;14.63;;
60292;SDS011;52402;52.670;6.750;2023-03-01T07:08:55;22.42;;;15.95;;
60292;SDS011;52402;52.670;6.750;2023-03-01T07:11:20;22.88;;;16.40;;
60292;SDS011;52402;52.670;6.750;2023-03-01T07:13:48;31.48;;;26.25;;
60292;SDS011;52402;52.670;6.750;2023-03-01T07:16:14;30.10;;;20.40;;
60292;SDS011;52402;52.670;6.750;2023-03-01T07:18:40;30.48;;;23.83;;
60292;SDS011;52402;52.670;6.750;2023-03-01T07:21:06;26.38;;;17.77;;
60292;SDS011;52402;52.670;6.750;2023-03-01T07:23:33;36.55;;;27.60;;
60292;SDS011;52402;52.670;6.750;2023-03-01T07:25:59;32.47;;;26.00;;
60292;SDS011;52402;52.670;6.750;2023-03-01T07:28:25;32.97;;;22.20;;
60292;SDS011;52402;52.670;6.750;2023-03-01T07:30:51;27.02;;;20.38;;
60292;SDS011;52402;52.670;6.750;2023-03-01T07:33:17;30.90;;;20.77;;
60292;SDS011;52402;52.670;6.750;2023-03-01T07:35:43;41.42;;;30.67;;
60292;SDS011;52402;52.670;6.750;2023-03-01T07:38:08;29.98;;;23.30;;
60292;SDS011;52402;52.670;6.750;2023-03-01T07:40:34;33.22;;;21.42;;
60292;SDS011;52402;52.670;6.750;2023-03-01T07:43:00;40.97;;;33.67;;
60292;SDS011;52402;52.670;6.750;2023-03-01T07:45:26;35.28;;;24.23;;
60292;SDS011;52402;52.670;6.750;2023-03-01T07:47:52;36.83;;;29.00;;
60292;SDS011;52402;52.670;6.750;2023-03-01T07:50:18;37.88;;;25.42;;
60292;SDS011;52402;52.670;6.750;2023-03-01T07:52:45;40.05;;;31.85;;
60292;SDS011;52402;52.670;6.750;2023-03-01T07:55:11;43.97;;;37.42;;
60292;SDS011;52402;52.670;6.750;2023-03-01T07:57:37;40.05;;;29.08;;
60292;SDS011;52402;52.670;6.750;2023-03-01T08:00:04;48.13;;;37.42;;
60292;SDS011;52402;52.670;6.750;2023-03-01T08:02:30;44.58;;;30.90;;
60292;SDS011;52402;52.670;6.750;2023-03-01T08:04:56;49.45;;;37.13;;
60292;SDS011;52402;52.670;6.750;2023-03-01T08:07:22;50.40;;;35.88;;
60292;SDS011;52402;52.670;6.750;2023-03-01T08:09:48;48.25;;;33.13;;
60292;SDS011;52402;52.670;6.750;2023-03-01T08:12:14;66.30;;;59.22;;
60292;SDS011;52402;52.670;6.750;2023-03-01T08:14:41;44.53;;;35.70;;
60292;SDS011;52402;52.670;6.750;2023-03-01T08:17:07;40.47;;;28.23;;
60292;SDS011;52402;52.670;6.750;2023-03-01T08:19:32;47.42;;;40.70;;
60292;SDS011;52402;52.670;6.750;2023-03-01T08:21:59;49.60;;;39.58;;
60292;SDS011;52402;52.670;6.750;2023-03-01T08:24:28;66.03;;;59.00;;
60292;SDS011;52402;52.670;6.750;2023-03-01T08:26:54;44.08;;;27.98;;
60292;SDS011;52402;52.670;6.750;2023-03-01T08:29:20;39.60;;;34.75;;
60292;SDS011;52402;52.670;6.750;2023-03-01T08:31:46;43.20;;;36.50;;
60292;SDS011;52402;52.670;6.750;2023-03-01T08:34:13;32.35;;;27.75;;
60292;SDS011;52402;52.670;6.750;2023-03-01T08:36:41;42.00;;;37.65;;
60292;SDS011;52402;52.670;6.750;2023-03-01T08:39:09;44.13;;;38.47;;
60292;SDS011;52402;52.670;6.750;2023-03-01T08:41:37;45.47;;;40.75;;
60292;SDS011;52402;52.670;6.750;2023-03-01T08:44:03;29.63;;;16.90;;
60292;SDS011;52402;52.670;6.750;2023-03-01T08:46:34;47.95;;;43.00;;
60292;SDS011;52402;52.670;6.750;2023-03-01T08:49:05;43.20;;;38.75;;
60292;SDS011;52402;52.670;6.750;2023-03-01T08:51:40;34.05;;;27.88;;
60292;SDS011;52402;52.670;6.750;2023-03-01T08:54:07;33.78;;;24.10;;
60292;SDS011;52402;52.670;6.750;2023-03-01T08:56:36;39.45;;;35.40;;
60292;SDS011;52402;52.670;6.750;2023-03-01T08:59:02;33.28;;;23.73;;
60292;SDS011;52402;52.670;6.750;2023-03-01T09:01:28;34.28;;;30.90;;
60292;SDS011;52402;52.670;6.750;2023-03-01T09:03:54;30.50;;;27.35;;
60292;SDS011;52402;52.670;6.750;2023-03-01T09:06:19;35.42;;;31.92;;
60292;SDS011;52402;52.670;6.750;2023-03-01T09:08:46;29.00;;;25.88;;
60292;SDS011;52402;52.670;6.750;2023-03-01T09:11:19;34.28;;;30.88;;
60292;SDS011;52402;52.670;6.750;2023-03-01T09:13:46;31.52;;;28.33;;
60292;SDS011;52402;52.670;6.750;2023-03-01T09:16:14;25.02;;;19.27;;
60292;SDS011;52402;52.670;6.750;2023-03-01T09:18:42;30.88;;;27.67;;
60292;SDS011;52402;52.670;6.750;2023-03-01T09:21:10;25.08;;;21.67;;
60292;SDS011;52402;52.670;6.750;2023-03-01T09:23:45;29.33;;;26.42;;
60292;SDS011;52402;52.670;6.750;2023-03-01T09:26:13;26.10;;;23.50;;
60292;SDS011;52402;52.670;6.750;2023-03-01T09:28:44;25.48;;;22.98;;
60292;SDS011;52402;52.670;6.750;2023-03-01T09:31:11;25.27;;;22.73;;
60292;SDS011;52402;52.670;6.750;2023-03-01T09:33:38;24.98;;;22.52;;
60292;SDS011;52402;52.670;6.750;2023-03-01T09:36:06;25.75;;;23.20;;
60292;SDS011;52402;52.670;6.750;2023-03-01T09:38:35;20.92;;;18.35;;
60292;SDS011;52402;52.670;6.750;2023-03-01T09:41:01;18.98;;;16.98;;
60292;SDS011;52402;52.670;6.750;2023-03-01T09:46:19;16.15;;;14.43;;
60292;SDS011;52402;52.670;6.750;2023-03-01T09:48:51;15.25;;;13.52;;
60292;SDS011;52402;52.670;6.750;2023-03-01T09:51:27;14.15;;;12.75;;
60292;SDS011;52402;52.670;6.750;2023-03-01T09:53:56;15.07;;;13.02;;
60292;SDS011;52402;52.670;6.750;2023-03-01T09:56:33;13.13;;;10.52;;
60292;SDS011;52402;52.670;6.750;2023-03-01T10:04:49;9.02;;;6.93;;
60292;SDS011;52402;52.670;6.750;2023-03-01T10:09:45;7.63;;;4.10;;
60292;SDS011;52402;52.670;6.750;2023-03-01T10:12:12;9.50;;;7.25;;
60292;SDS011;52402;52.670;6.750;2023-03-01T10:20:08;9.25;;;7.10;;
60292;SDS011;52402;52.670;6.750;2023-03-01T10:22:46;9.18;;;7.00;;
60292;SDS011;52402;52.670;6.750;2023-03-01T10:25:20;9.32;;;7.15;;
60292;SDS011;52402;52.670;6.750;2023-03-01T10:27:55;10.07;;;7.72;;
60292;SDS011;52402;52.670;6.750;2023-03-01T10:30:38;9.00;;;6.80;;
60292;SDS011;52402;52.670;6.750;2023-03-01T10:33:22;8.30;;;6.38;;
60292;SDS011;52402;52.670;6.750;2023-03-01T10:35:51;8.50;;;6.13;;
60292;SDS011;52402;52.670;6.750;2023-03-01T10:38:16;8.10;;;6.18;;
60292;SDS011;52402;52.670;6.750;2023-03-01T10:43:20;10.45;;;7.45;;
60292;SDS011;52402;52.670;6.750;2023-03-01T10:45:46;9.20;;;7.18;;
60292;SDS011;52402;52.670;6.750;2023-03-01T10:50:49;7.93;;;6.57;;
60292;SDS011;52402;52.670;6.750;2023-03-01T10:53:29;10.93;;;6.80;;
60292;SDS011;52402;52.670;6.750;2023-03-01T10:55:57;8.93;;;6.13;;
60292;SDS011;52402;52.670;6.750;2023-03-01T10:58:28;8.75;;;6.95;;
60292;SDS011;52402;52.670;6.750;2023-03-01T11:00:55;9.18;;;6.97;;
60292;SDS011;52402;52.670;6.750;2023-03-01T11:03:54;9.55;;;7.00;;
60292;SDS011;52402;52.670;6.750;2023-03-01T11:06:28;9.85;;;7.00;;
60292;SDS011;52402;52.670;6.750;2023-03-01T11:08:53;8.52;;;6.22;;
60292;SDS011;52402;52.670;6.750;2023-03-01T11:11:23;9.00;;;6.57;;
60292;SDS011;52402;52.670;6.750;2023-03-01T11:14:00;8.93;;;6.50;;
60292;SDS011;52402;52.670;6.750;2023-03-01T11:16:28;8.50;;;6.45;;
60292;SDS011;52402;52.670;6.750;2023-03-01T11:19:14;9.77;;;7.00;;
60292;SDS011;52402;52.670;6.750;2023-03-01T11:21:54;8.98;;;7.00;;
60292;SDS011;52402;52.670;6.750;2023-03-01T11:24:42;9.55;;;7.35;;
60292;SDS011;52402;52.670;6.750;2023-03-01T11:27:25;10.05;;;6.88;;
60292;SDS011;52402;52.670;6.750;2023-03-01T11:29:58;11.13;;;7.95;;
60292;SDS011;52402;52.670;6.750;2023-03-01T11:32:31;11.18;;;8.88;;
60292;SDS011;52402;52.670;6.750;2023-03-01T11:35:25;12.88;;;9.57;;
60292;SDS011;52402;52.670;6.750;2023-03-01T11:40:29;11.55;;;8.85;;
60292;SDS011;52402;52.670;6.750;2023-03-01T11:45:43;12.43;;;10.40;;
60292;SDS011;52402;52.670;6.750;2023-03-01T11:48:32;14.38;;;10.20;;
60292;SDS011;52402;52.670;6.750;2023-03-01T11:54:15;13.98;;;10.23;;
60292;SDS011;52402;52.670;6.750;2023-03-01T11:56:57;11.70;;;9.93;;
60292;SDS011;52402;52.670;6.750;2023-03-01T12:10:18;11.68;;;9.85;;
60292;SDS011;52402;52.670;6.750;2023-03-01T12:13:08;13.95;;;10.20;;
60292;SDS011;52402;52.670;6.750;2023-03-01T12:16:07;10.80;;;9.45;;
60292;SDS011;52402;52.670;6.750;2023-03-01T12:32:21;13.82;;;10.43;;
60292;SDS011;52402;52.670;6.750;2023-03-01T12:35:11;11.07;;;9.88;;
60292;SDS011;52402;52.670;6.750;2023-03-01T12:46:25;12.27;;;10.60;;
60292;SDS011;52402;52.670;6.750;2023-03-01T12:51:56;12.55;;;10.52;;
60292;SDS011;52402;52.670;6.750;2023-03-01T12:56:55;13.23;;;10.25;;
60292;SDS011;52402;52.670;6.750;2023-03-01T13:02:31;13.80;;;9.80;;
60292;SDS011;52402;52.670;6.750;2023-03-01T13:11:04;12.95;;;9.60;;
60292;SDS011;52402;52.670;6.750;2023-03-01T13:13:36;11.75;;;9.43;;
60292;SDS011;52402;52.670;6.750;2023-03-01T13:19:14;13.02;;;9.77;;
60292;SDS011;52402;52.670;6.750;2023-03-01T13:21:40;11.82;;;9.70;;
60292;SDS011;52402;52.670;6.750;2023-03-01T13:27:39;10.77;;;9.68;;
60292;SDS011;52402;52.670;6.750;2023-03-01T13:29:52;11.48;;;9.75;;
60292;SDS011;52402;52.670;6.750;2023-03-01T13:32:23;12.43;;;10.02;;
60292;SDS011;52402;52.670;6.750;2023-03-01T13:34:51;11.07;;;9.40;;
60292;SDS011;52402;52.670;6.750;2023-03-01T13:37:19;10.88;;;8.95;;
60292;SDS011;52402;52.670;6.750;2023-03-01T13:39:51;11.43;;;9.45;;
60292;SDS011;52402;52.670;6.750;2023-03-01T13:47:23;11.23;;;9.80;;
60292;SDS011;52402;52.670;6.750;2023-03-01T13:49:59;11.40;;;9.93;;
60292;SDS011;52402;52.670;6.750;2023-03-01T13:52:31;12.07;;;9.02;;
60292;SDS011;52402;52.670;6.750;2023-03-01T14:00:54;12.80;;;10.23;;
60292;SDS011;52402;52.670;6.750;2023-03-01T14:03:24;11.93;;;9.65;;
60292;SDS011;52402;52.670;6.750;2023-03-01T14:08:32;13.43;;;10.40;;
60292;SDS011;52402;52.670;6.750;2023-03-01T14:13:31;10.25;;;8.82;;
60292;SDS011;52402;52.670;6.750;2023-03-01T14:16:37;10.70;;;8.82;;
60292;SDS011;52402;52.670;6.750;2023-03-01T14:19:29;10.00;;;8.27;;
60292;SDS011;52402;52.670;6.750;2023-03-01T14:22:39;10.63;;;8.52;;
60292;SDS011;52402;52.670;6.750;2023-03-01T14:24:50;11.32;;;9.43;;
60292;SDS011;52402;52.670;6.750;2023-03-01T14:27:17;11.40;;;8.95;;
60292;SDS011;52402;52.670;6.750;2023-03-01T14:29:43;13.63;;;9.10;;
60292;SDS011;52402;52.670;6.750;2023-03-01T14:32:19;10.20;;;8.90;;
60292;SDS011;52402;52.670;6.750;2023-03-01T14:34:48;11.90;;;9.32;;
60292;SDS011;52402;52.670;6.750;2023-03-01T14:39:45;10.68;;;9.55;;
60292;SDS011;52402;52.670;6.750;2023-03-01T14:42:11;12.18;;;9.55;;
60292;SDS011;52402;52.670;6.750;2023-03-01T14:44:40;11.95;;;9.85;;
60292;SDS011;52402;52.670;6.750;2023-03-01T14:47:12;11.57;;;10.27;;
60292;SDS011;52402;52.670;6.750;2023-03-01T14:49:45;12.80;;;10.50;;
60292;SDS011;52402;52.670;6.750;2023-03-01T14:52:20;12.20;;;10.48;;
60292;SDS011;52402;52.670;6.750;2023-03-01T14:54:48;13.48;;;11.23;;
60292;SDS011;52402;52.670;6.750;2023-03-01T14:57:18;13.18;;;11.02;;
60292;SDS011;52402;52.670;6.750;2023-03-01T14:59:52;14.02;;;10.95;;
60292;SDS011;52402;52.670;6.750;2023-03-01T15:02:24;13.48;;;11.90;;
60292;SDS011;52402;52.670;6.750;2023-03-01T15:04:52;15.32;;;12.05;;
60292;SDS011;52402;52.670;6.750;2023-03-01T15:07:21;15.48;;;13.23;;
60292;SDS011;52402;52.670;6.750;2023-03-01T15:09:51;15.70;;;13.52;;
60292;SDS011;52402;52.670;6.750;2023-03-01T15:15:19;16.08;;;13.88;;
60292;SDS011;52402;52.670;6.750;2023-03-01T15:17:48;17.63;;;14.68;;
60292;SDS011;52402;52.670;6.750;2023-03-01T15:20:20;16.60;;;14.25;;
60292;SDS011;52402;52.670;6.750;2023-03-01T15:22:50;16.02;;;14.32;;
60292;SDS011;52402;52.670;6.750;2023-03-01T15:25:22;16.77;;;14.70;;
60292;SDS011;52402;52.670;6.750;2023-03-01T15:27:50;17.70;;;15.00;;
60292;SDS011;52402;52.670;6.750;2023-03-01T15:30:19;16.92;;;14.80;;
60292;SDS011;52402;52.670;6.750;2023-03-01T15:35:47;16.02;;;14.32;;
60292;SDS011;52402;52.670;6.750;2023-03-01T15:44:16;17.52;;;14.98;;
60292;SDS011;52402;52.670;6.750;2023-03-01T15:46:45;17.95;;;14.82;;
60292;SDS011;52402;52.670;6.750;2023-03-01T15:52:02;16.27;;;14.48;;
60292;SDS011;52402;52.670;6.750;2023-03-01T15:54:30;16.20;;;14.20;;
60292;SDS011;52402;52.670;6.750;2023-03-01T15:56:56;17.17;;;13.63;;
60292;SDS011;52402;52.670;6.750;2023-03-01T15:59:22;16.02;;;13.80;;
60292;SDS011;52402;52.670;6.750;2023-03-01T16:01:48;15.75;;;13.70;;
60292;SDS011;52402;52.670;6.750;2023-03-01T16:04:14;15.43;;;13.82;;
60292;SDS011;52402;52.670;6.750;2023-03-01T16:06:52;15.45;;;13.85;;
60292;SDS011;52402;52.670;6.750;2023-03-01T16:09:22;14.98;;;13.32;;
60292;SDS011;52402;52.670;6.750;2023-03-01T16:11:49;15.20;;;13.15;;
60292;SDS011;52402;52.670;6.750;2023-03-01T16:14:15;17.58;;;13.57;;
60292;SDS011;52402;52.670;6.750;2023-03-01T16:16:41;15.40;;;13.45;;
60292;SDS011;52402;52.670;6.750;2023-03-01T16:19:07;15.45;;;13.68;;
60292;SDS011;52402;52.670;6.750;2023-03-01T16:21:33;15.80;;;13.70;;
60292;SDS011;52402;52.670;6.750;2023-03-01T16:23:59;15.60;;;14.02;;
60292;SDS011;52402;52.670;6.750;2023-03-01T16:26:25;15.85;;;14.07;;
60292;SDS011;52402;52.670;6.750;2023-03-01T16:28:53;17.10;;;14.13;;
60292;SDS011;52402;52.670;6.750;2023-03-01T16:31:20;15.32;;;13.15;;
60292;SDS011;52402;52.670;6.750;2023-03-01T16:33:46;15.52;;;13.63;;
60292;SDS011;52402;52.670;6.750;2023-03-01T16:36:14;15.23;;;13.15;;
60292;SDS011;52402;52.670;6.750;2023-03-01T16:38:42;15.25;;;13.65;;
60292;SDS011;52402;52.670;6.750;2023-03-01T16:41:11;15.32;;;13.73;;
60292;SDS011;52402;52.670;6.750;2023-03-01T16:43:41;15.70;;;14.05;;
60292;SDS011;52402;52.670;6.750;2023-03-01T16:46:15;15.88;;;14.18;;
60292;SDS011;52402;52.670;6.750;2023-03-01T16:48:42;16.05;;;14.45;;
60292;SDS011;52402;52.670;6.750;2023-03-01T16:51:08;15.77;;;14.15;;